Time;durP1;ratioP1;P1;durP2;ratioP2;P2;SDS_P1;SDS_P2;PMS_P1;PMS_P2;Temp;Humidity;BMP_temperature;BMP_pressure;BME280_temperature;BME280_humidity;BME280_pressure;Samples;Min_cycle;Max_cycle;Signal;HPM_P1;HPM_P2
2022/06/16 00:00:23;;;;;;;23.00;9.50;;;;;;;11.40;52.88;99349.11;104770;1288;107430;-70
2022/06/16 00:03:08;;;;;;;26.20;10.70;;;;;;;11.27;53.77;99349.33;104684;1288;99383;-70
2022/06/16 00:05:42;;;;;;;23.50;10.40;;;;;;;11.12;54.18;99346.27;104688;1288;99245;-69
2022/06/16 00:08:16;;;;;;;23.00;10.50;;;;;;;11.00;54.28;99346.60;104758;1288;113243;-68
2022/06/16 00:13:42;;;;;;;22.40;11.50;;;;;;;10.78;54.67;99342.62;104648;1288;108455;-68
2022/06/16 00:16:15;;;;;;;23.50;11.50;;;;;;;10.68;54.87;99347.01;104740;1288;97799;-68
2022/06/16 00:18:45;;;;;;;24.90;11.90;;;;;;;10.62;55.09;99350.64;104855;1288;97747;-68
2022/06/16 00:21:13;;;;;;;23.80;10.70;;;;;;;10.58;55.00;99349.30;104774;1287;113451;-67
2022/06/16 00:23:43;;;;;;;22.70;9.80;;;;;;;10.59;55.11;99349.02;104738;1288;99351;-69
2022/06/16 00:26:19;;;;;;;21.70;9.60;;;;;;;10.61;55.17;99349.27;104795;1288;106457;-68
2022/06/16 00:28:51;;;;;;;19.20;9.10;;;;;;;10.65;55.12;99349.55;104678;1290;99329;-68
2022/06/16 00:31:22;;;;;;;16.40;7.50;;;;;;;10.69;55.26;99350.27;104769;1288;99169;-67
2022/06/16 00:33:51;;;;;;;16.90;7.40;;;;;;;10.76;55.20;99349.30;104746;1288;113431;-68
2022/06/16 00:36:20;;;;;;;21.40;8.10;;;;;;;10.83;55.39;99347.91;104560;1290;99714;-68
2022/06/16 00:38:52;;;;;;;19.00;7.90;;;;;;;10.91;55.44;99347.77;104700;1288;108430;-68
2022/06/16 00:41:22;;;;;;;15.80;7.20;;;;;;;10.95;55.42;99347.11;104544;1288;99299;-70
2022/06/16 00:43:52;;;;;;;17.20;7.20;;;;;;;10.98;55.69;99339.80;104876;1288;99282;-69
2022/06/16 00:46:24;;;;;;;16.50;7.60;;;;;;;11.05;55.44;99340.39;104852;1288;115444;-69
2022/06/16 00:49:02;;;;;;;18.60;8.00;;;;;;;11.07;55.61;99334.90;104777;1288;99239;-67
2022/06/16 00:51:30;;;;;;;19.40;8.20;;;;;;;11.10;55.72;99337.54;104732;1288;108344;-68
2022/06/16 00:54:08;;;;;;;18.70;8.70;;;;;;;11.12;55.68;99335.29;104666;1288;99255;-69
2022/06/16 00:56:36;;;;;;;19.80;8.30;;;;;;;11.14;55.80;99334.27;104883;1288;99334;-69
2022/06/16 00:59:09;;;;;;;18.20;7.60;;;;;;;11.16;55.72;99336.98;104712;1288;112359;-68
2022/06/16 01:01:44;;;;;;;17.50;7.40;;;;;;;11.17;55.91;99333.89;105099;1288;99267;-67
2022/06/16 01:07:10;;;;;;;16.20;6.90;;;;;;;11.21;56.12;99333.27;104903;1287;99199;-67
2022/06/16 01:09:45;;;;;;;18.60;7.30;;;;;;;11.23;56.18;99332.77;104835;1288;99371;-69
2022/06/16 01:15:48;;;;;;;16.50;7.20;;;;;;;11.24;56.05;99334.95;104844;1288;97642;-67
2022/06/16 01:18:40;;;;;;;17.80;6.90;;;;;;;11.20;56.07;99329.42;104717;1288;106829;-68
2022/06/16 01:21:29;;;;;;;17.50;7.10;;;;;;;11.12;56.09;99332.25;104761;1288;99332;-69
2022/06/16 01:24:44;;;;;;;16.60;6.90;;;;;;;11.03;56.18;99333.62;104750;1288;99210;-67
2022/06/16 01:27:24;;;;;;;15.10;6.90;;;;;;;10.89;56.36;99329.93;103793;1296;112144;-67
2022/06/16 01:30:02;;;;;;;17.70;7.00;;;;;;;10.82;56.29;99330.10;103894;1296;97572;-69
2022/06/16 01:32:47;;;;;;;14.20;6.60;;;;;;;10.73;56.42;99331.60;104351;1288;108351;-68
2022/06/16 01:35:34;;;;;;;15.90;7.00;;;;;;;10.63;56.82;99333.85;104833;1288;99316;-67
2022/06/16 01:38:24;;;;;;;17.90;7.40;;;;;;;10.54;57.07;99336.58;104790;1288;97984;-67
2022/06/16 01:41:20;;;;;;;20.10;7.80;;;;;;;10.45;57.57;99336.34;104643;1288;112918;-67
2022/06/16 01:44:14;;;;;;;17.50;8.40;;;;;;;10.32;57.76;99332.56;104704;1288;99287;-67
2022/06/16 01:46:44;;;;;;;;;;;;;;;10.24;57.63;99334.87;104755;1288;106750;-68
2022/06/16 01:49:27;;;;;;;18.70;8.60;;;;;;;10.17;57.83;99329.82;104682;1288;99269;-68
2022/06/16 01:52:36;;;;;;;20.90;10.20;;;;;;;10.16;57.74;99334.89;104877;1288;99215;-68
2022/06/16 01:55:13;;;;;;;17.40;8.10;;;;;;;10.13;58.07;99334.36;104755;1288;112785;-69
2022/06/16 01:58:05;;;;;;;18.60;9.00;;;;;;;10.13;58.05;99327.23;104726;1288;99327;-69
2022/06/16 02:00:36;;;;;;;17.70;8.20;;;;;;;10.14;58.28;99330.40;104659;1288;108482;-69
2022/06/16 02:03:26;;;;;;;18.20;8.60;;;;;;;10.14;58.31;99335.70;104708;1288;99242;-68
2022/06/16 02:06:05;;;;;;;20.30;8.90;;;;;;;10.15;58.34;99331.55;104773;1287;97771;-69
2022/06/16 02:08:49;;;;;;;19.90;8.20;;;;;;;10.16;58.39;99330.81;104610;1288;112795;-68
2022/06/16 02:11:30;;;;;;;19.70;9.30;;;;;;;10.16;58.33;99328.48;104847;1288;96607;-68
2022/06/16 02:14:16;;;;;;;21.60;9.80;;;;;;;10.14;58.38;99326.86;104571;1288;107853;-67
2022/06/16 02:16:47;;;;;;;20.30;8.80;;;;;;;10.10;58.63;99328.89;104852;1288;99353;-69
2022/06/16 02:19:24;;;;;;;22.20;9.90;;;;;;;10.06;58.89;99325.04;104776;1288;96653;-69
2022/06/16 02:21:57;;;;;;;19.70;9.60;;;;;;;10.03;58.83;99325.23;104793;1288;111547;-69
2022/06/16 02:24:30;;;;;;;18.30;9.50;;;;;;;10.02;58.90;99321.07;104879;1288;97664;-69
2022/06/16 02:27:04;;;;;;;19.80;9.70;;;;;;;10.03;58.94;99319.80;104755;1288;108491;-69
2022/06/16 02:29:38;;;;;;;19.50;8.80;;;;;;;10.04;59.21;99319.36;104803;1288;99331;-69
2022/06/16 02:32:41;;;;;;;22.10;8.10;;;;;;;10.05;59.02;99318.92;104810;1288;99579;-69
2022/06/16 02:35:26;;;;;;;19.80;9.20;;;;;;;10.05;59.31;99321.05;104735;1288;112428;-69
2022/06/16 02:38:29;;;;;;;19.50;8.90;;;;;;;10.05;59.58;99319.27;104792;1288;99003;-69
2022/06/16 02:41:26;;;;;;;17.40;8.10;;;;;;;10.07;59.41;99314.89;104712;1288;108620;-68
2022/06/16 02:44:09;;;;;;;18.40;7.90;;;;;;;10.08;59.13;99313.41;104721;1288;99221;-68
2022/06/16 02:47:15;;;;;;;18.50;7.90;;;;;;;10.08;59.10;99313.96;104637;1290;99591;-69
2022/06/16 02:50:04;;;;;;;17.60;7.20;;;;;;;10.04;59.29;99311.54;104724;1288;112465;-68
2022/06/16 02:52:44;;;;;;;18.70;7.20;;;;;;;10.03;59.38;99317.83;104840;1288;97716;-67
2022/06/16 02:55:17;;;;;;;16.90;7.70;;;;;;;10.05;59.71;99319.48;104640;1290;108062;-69
2022/06/16 02:57:51;;;;;;;19.30;7.90;;;;;;;10.09;59.72;99317.03;104777;1288;99255;-69
2022/06/16 03:00:41;;;;;;;17.30;7.70;;;;;;;10.15;59.63;99315.46;104721;1288;99360;-68
2022/06/16 03:03:29;;;;;;;17.70;7.40;;;;;;;10.21;59.72;99321.38;104722;1287;113377;-68
2022/06/16 03:06:03;;;;;;;17.80;7.40;;;;;;;10.26;59.69;99322.30;104766;1288;96886;-68
2022/06/16 03:08:39;;;;;;;16.80;6.90;;;;;;;10.31;59.80;99321.82;104855;1288;107937;-68
2022/06/16 03:11:08;;;;;;;15.10;6.70;;;;;;;10.34;59.68;99319.64;104718;1288;99325;-67
2022/06/16 03:13:41;;;;;;;19.30;7.70;;;;;;;10.38;60.21;99322.77;104891;1288;99267;-69
2022/06/16 03:16:14;;;;;;;17.30;7.00;;;;;;;10.44;60.12;99327.88;104706;1288;113236;-68
2022/06/16 03:18:42;;;;;;;;;;;;;;;10.49;59.98;99323.50;104754;1288;99370;-69
2022/06/16 03:21:13;;;;;;;15.90;6.90;;;;;;;10.52;60.29;99323.08;104721;1288;108295;-69
2022/06/16 03:23:47;;;;;;;16.90;7.40;;;;;;;10.58;60.22;99322.66;104634;1290;99258;-69
2022/06/16 03:26:17;;;;;;;19.70;8.00;;;;;;;10.63;60.07;99318.60;104749;1288;97771;-68
2022/06/16 03:28:50;;;;;;;13.40;6.30;;;;;;;10.66;60.28;99314.66;104723;1287;113424;-69
2022/06/16 03:31:23;;;;;;;16.00;6.60;;;;;;;10.69;60.42;99319.25;104768;1288;98374;-67
2022/06/16 03:33:52;;;;;;;14.20;6.30;;;;;;;10.74;60.66;99319.31;104584;1290;108298;-69
2022/06/16 03:36:27;;;;;;;18.60;6.60;;;;;;;10.79;60.90;99325.89;104727;1288;99373;-68
2022/06/16 03:38:55;;;;;;;17.60;6.30;;;;;;;10.83;60.56;99321.15;104532;1288;99440;-68
2022/06/16 03:41:27;;;;;;;15.80;7.00;;;;;;;10.85;60.45;99320.25;104739;1288;113514;-68
2022/06/16 03:43:55;;;;;;;14.70;6.50;;;;;;;10.86;60.52;99320.38;104711;1288;96781;-69
2022/06/16 03:46:27;;;;;;;17.20;7.20;;;;;;;10.88;60.58;99316.73;104725;1288;108329;-68
2022/06/16 03:48:55;;;;;;;17.00;6.40;;;;;;;10.91;60.73;99315.87;104680;1288;100071;-69
2022/06/16 03:51:27;;;;;;;18.90;7.30;;;;;;;10.92;60.74;99316.48;104733;1288;99186;-68
2022/06/16 03:53:54;;;;;;;15.00;6.50;;;;;;;10.93;60.81;99316.90;104731;1288;113921;-67
2022/06/16 03:56:23;;;;;;;14.70;6.50;;;;;;;10.96;60.91;99311.00;104744;1288;96652;-68
2022/06/16 03:58:56;;;;;;;16.40;6.60;;;;;;;10.98;60.86;99311.06;103343;1287;1847665;-69
2022/06/16 04:01:25;;;;;;;17.60;7.10;;;;;;;10.99;60.83;99310.66;104728;1288;99279;-69
2022/06/16 04:04:00;;;;;;;16.10;7.00;;;;;;;11.00;60.89;99317.64;104670;1290;96589;-67
2022/06/16 04:06:36;;;;;;;15.40;6.90;;;;;;;11.02;61.06;99314.84;104708;1288;113661;-68
2022/06/16 04:09:07;;;;;;;13.60;6.50;;;;;;;11.05;61.09;99308.42;104761;1288;99279;-67
2022/06/16 04:11:36;;;;;;;15.70;7.00;;;;;;;11.08;61.12;99309.46;104727;1288;106256;-68
2022/06/16 04:14:12;;;;;;;15.40;7.20;;;;;;;11.10;61.15;99311.08;104548;1288;99267;-67
2022/06/16 04:16:52;;;;;;;14.20;6.70;;;;;;;11.13;61.43;99307.16;104805;1288;99241;-68
2022/06/16 04:19:27;;;;;;;16.20;6.50;;;;;;;11.19;61.41;99302.34;104581;1290;112791;-69
2022/06/16 04:21:56;;;;;;;17.30;6.90;;;;;;;11.24;61.50;99305.14;104789;1288;96626;-69
2022/06/16 04:24:27;;;;;;;14.80;6.30;;;;;;;11.30;61.67;99307.52;104649;1288;108481;-71
2022/06/16 04:26:57;;;;;;;15.20;5.90;;;;;;;11.39;61.59;99302.52;104637;1290;99284;-69
2022/06/16 04:29:25;;;;;;;16.00;6.90;;;;;;;11.45;61.74;99301.69;104810;1288;99340;-69
2022/06/16 04:31:57;;;;;;;14.20;6.10;;;;;;;11.53;61.78;99297.59;104556;1288;112760;-68
2022/06/16 04:34:27;;;;;;;13.70;5.50;;;;;;;11.60;61.94;99299.19;104735;1288;99354;-71
2022/06/16 04:36:55;;;;;;;16.80;7.00;;;;;;;11.67;61.96;99298.67;104714;1291;107910;-72
2022/06/16 04:39:23;;;;;;;14.80;6.00;;;;;;;11.74;61.97;99297.45;104582;1290;100076;-70
2022/06/16 04:41:51;;;;;;;15.40;6.50;;;;;;;11.82;62.01;99296.90;104781;1288;98503;-69
2022/06/16 04:44:19;;;;;;;14.30;6.30;;;;;;;11.88;62.08;99294.99;104761;1288;111402;-70
2022/06/16 04:46:47;;;;;;;16.20;5.90;;;;;;;11.96;62.08;99293.91;104801;1288;99335;-71
2022/06/16 04:49:14;;;;;;;18.30;6.40;;;;;;;12.04;62.12;99291.17;104826;1288;107774;-70
2022/06/16 04:51:42;;;;;;;13.50;5.80;;;;;;;12.11;62.14;99291.57;104843;1287;96651;-71
2022/06/16 04:54:15;;;;;;;12.50;5.40;;;;;;;12.18;62.20;99293.66;104914;1288;99369;-69
2022/06/16 04:56:43;;;;;;;12.20;6.00;;;;;;;12.28;62.31;99294.73;104783;1288;113518;-71
2022/06/16 04:59:13;;;;;;;12.00;5.50;;;;;;;12.35;62.30;99290.30;104850;1288;99240;-70
2022/06/16 05:01:45;;;;;;;12.00;5.50;;;;;;;12.44;62.21;99289.98;104807;1288;107754;-70
2022/06/16 05:04:13;;;;;;;14.40;5.30;;;;;;;12.54;62.25;99287.39;104786;1287;100070;-70
2022/06/16 05:06:40;;;;;;;11.90;5.10;;;;;;;12.65;62.33;99285.86;104766;1288;99203;-69
2022/06/16 05:09:12;;;;;;;10.50;5.50;;;;;;;12.75;62.45;99282.63;104754;1288;113433;-69
2022/06/16 05:11:40;;;;;;;12.40;5.20;;;;;;;12.84;62.36;99274.98;104768;1288;99233;-68
2022/06/16 05:14:10;;;;;;;13.40;5.20;;;;;;;12.94;62.42;99265.99;104582;1290;107827;-69
2022/06/16 05:16:38;;;;;;;13.30;5.20;;;;;;;13.06;62.57;99261.25;104812;1288;96790;-69
2022/06/16 05:19:10;;;;;;;11.50;5.00;;;;;;;13.21;62.59;99257.63;104963;1288;97863;-69
2022/06/16 05:21:38;;;;;;;13.80;5.00;;;;;;;13.34;62.51;99261.92;104806;1288;112358;-69
2022/06/16 05:24:09;;;;;;;11.80;5.00;;;;;;;13.46;62.49;99260.80;104815;1287;99226;-68
2022/06/16 05:26:36;;;;;;;12.50;5.40;;;;;;;13.57;62.41;99260.08;104904;1287;107867;-70
2022/06/16 05:29:04;;;;;;;14.60;5.50;;;;;;;13.67;62.50;99263.65;104880;1288;99817;-68
2022/06/16 05:31:36;;;;;;;12.00;5.10;;;;;;;13.76;62.59;99266.41;104864;1288;99242;-69
2022/06/16 05:34:06;;;;;;;11.90;5.30;;;;;;;13.84;62.71;99264.63;104611;1290;113550;-69
2022/06/16 05:36:35;;;;;;;12.20;5.20;;;;;;;13.94;62.53;99265.42;104767;1288;99950;-68
2022/06/16 05:39:07;;;;;;;10.00;4.90;;;;;;;14.06;62.52;99266.95;104928;1288;107643;-67
2022/06/16 05:41:39;;;;;;;9.80;5.00;;;;;;;14.19;62.50;99264.94;104887;1288;98050;-68
2022/06/16 05:44:10;;;;;;;11.60;5.00;;;;;;;14.33;62.61;99262.50;104662;1288;99273;-68
2022/06/16 05:46:41;;;;;;;9.10;4.40;;;;;;;14.48;62.53;99265.68;104710;1290;113402;-66
2022/06/16 05:49:12;;;;;;;10.90;4.60;;;;;;;14.63;62.49;99264.07;104886;1288;99252;-66
2022/06/16 05:51:41;;;;;;;11.10;4.40;;;;;;;14.77;62.47;99265.24;104841;1287;108429;-67
2022/06/16 05:54:09;;;;;;;12.20;4.60;;;;;;;14.91;62.42;99260.79;104784;1288;99376;-65
2022/06/16 05:56:36;;;;;;;13.40;4.80;;;;;;;15.02;62.40;99257.37;104831;1288;99249;-67
2022/06/16 05:59:08;;;;;;;10.70;4.30;;;;;;;15.13;62.59;99259.43;104646;1290;115390;-68
2022/06/16 06:01:42;;;;;;;8.80;4.40;;;;;;;15.23;62.36;99260.48;104786;1288;99271;-66
2022/06/16 06:04:10;;;;;;;10.20;3.90;;;;;;;15.37;62.36;99251.77;104687;1288;107912;-67
2022/06/16 06:06:41;;;;;;;10.10;4.50;;;;;;;15.50;62.20;99250.44;104921;1288;99214;-68
2022/06/16 06:17:44;;;;;;;9.60;4.10;;;;;;;16.10;62.06;99255.78;104778;1288;108324;-69
2022/06/16 06:20:14;;;;;;;11.80;4.70;;;;;;;16.25;62.01;99256.73;104858;1288;99380;-66
2022/06/16 06:22:44;;;;;;;14.60;4.80;;;;;;;16.39;62.12;99250.67;104941;1288;99254;-69
2022/06/16 06:25:13;;;;;;;9.00;4.30;;;;;;;16.55;61.94;99253.83;104930;1288;112942;-67
2022/06/16 06:27:48;;;;;;;10.70;4.20;;;;;;;16.73;62.08;99253.96;104967;1288;96732;-68
2022/06/16 06:30:29;;;;;;;8.60;4.50;;;;;;;16.93;62.03;99252.77;105005;1288;107808;-67
2022/06/16 06:33:04;;;;;;;11.20;4.30;;;;;;;17.15;61.80;99246.77;104787;1288;99308;-72
2022/06/16 06:35:33;;;;;;;11.90;3.80;;;;;;;17.36;61.60;99244.86;104759;1288;99832;-69
2022/06/16 06:38:01;;;;;;;10.50;4.30;;;;;;;17.59;61.52;99243.69;104780;1287;112784;-70
2022/06/16 06:40:36;;;;;;;11.40;3.90;;;;;;;17.84;61.51;99242.20;104848;1288;99079;-69
2022/06/16 06:43:07;;;;;;;8.00;3.80;;;;;;;18.13;61.72;99237.89;104547;1288;107709;-72
2022/06/16 06:45:39;;;;;;;12.80;4.20;;;;;;;18.41;61.36;99231.94;104748;1288;99220;-70
2022/06/16 06:48:13;;;;;;;9.10;3.60;;;;;;;18.66;61.08;99228.63;104727;1288;99386;-71
2022/06/16 06:50:41;;;;;;;10.00;4.00;;;;;;;18.87;60.68;99223.64;104594;1290;111756;-74
2022/06/16 06:53:09;;;;;;;13.90;3.80;;;;;;;19.09;60.87;99227.09;104848;1287;99265;-67
2022/06/16 06:55:48;;;;;;;12.50;4.00;;;;;;;19.35;60.70;99224.57;104556;1290;108400;-67
2022/06/16 06:58:24;;;;;;;8.90;3.30;;;;;;;19.61;60.34;99228.06;104591;1290;99605;-70
2022/06/16 07:00:53;;;;;;;8.90;3.50;;;;;;;19.88;60.25;99222.84;104495;1291;99332;-70
2022/06/16 07:03:27;;;;;;;5.80;2.90;;;;;;;20.15;60.18;99216.98;104814;1288;112822;-69
2022/06/16 07:06:01;;;;;;;6.70;3.10;;;;;;;20.47;60.31;99215.31;104849;1288;99259;-68
2022/06/16 07:08:35;;;;;;;11.70;3.60;;;;;;;20.89;60.26;99213.35;104488;1288;107766;-69
2022/06/16 07:11:02;;;;;;;;;;;;;;;21.27;59.84;99209.14;104658;1288;99335;-71
2022/06/16 07:13:30;;;;;;;9.30;3.00;;;;;;;21.53;59.00;99207.30;104908;1288;99399;-69
2022/06/16 07:16:03;;;;;;;9.10;3.20;;;;;;;21.78;59.46;99206.61;104947;1288;112795;-69
2022/06/16 07:18:31;;;;;;;15.80;4.50;;;;;;;22.19;58.97;99206.29;104841;1288;96639;-68
2022/06/16 07:20:59;;;;;;;9.90;3.50;;;;;;;22.51;58.59;99206.77;104882;1288;108491;-71
2022/06/16 07:23:28;;;;;;;9.80;3.20;;;;;;;23.01;58.80;99204.27;104890;1288;100048;-67
2022/06/16 07:25:59;;;;;;;6.90;2.60;;;;;;;23.64;58.47;99206.75;104775;1288;99300;-70
2022/06/16 07:28:32;;;;;;;6.60;2.50;;;;;;;24.37;58.20;99209.11;104924;1288;112793;-70
2022/06/16 07:30:59;;;;;;;8.30;2.70;;;;;;;25.18;58.06;99205.79;104812;1287;99264;-69
2022/06/16 07:33:47;;;;;;;6.80;3.00;;;;;;;25.88;57.28;99201.02;104736;1288;108448;-68
2022/06/16 07:36:18;;;;;;;7.20;2.30;;;;;;;26.64;57.33;99197.56;104735;1290;96702;-69
2022/06/16 07:38:53;;;;;;;9.20;2.40;;;;;;;27.41;57.05;99198.27;104728;1290;99190;-68
2022/06/16 07:41:36;;;;;;;7.30;2.60;;;;;;;27.97;56.19;99199.23;104849;1288;112779;-69
2022/06/16 07:44:16;;;;;;;7.80;2.50;;;;;;;28.50;55.39;99197.38;104770;1288;99377;-68
2022/06/16 07:46:48;;;;;;;7.10;2.40;;;;;;;29.11;55.32;99195.95;104779;1290;107795;-69
2022/06/16 07:49:25;;;;;;;6.10;2.80;;;;;;;29.67;54.67;99190.77;104738;1288;97864;-70
2022/06/16 07:52:00;;;;;;;9.60;2.80;;;;;;;30.21;54.60;99189.00;104850;1288;99266;-69
2022/06/16 07:54:32;;;;;;;10.90;2.80;;;;;;;30.68;54.29;99185.81;104511;1288;112953;-70
2022/06/16 07:57:22;;;;;;;6.20;2.80;;;;;;;31.04;53.55;99182.71;104929;1288;96553;-68
2022/06/16 08:00:02;;;;;;;11.20;3.00;;;;;;;31.40;53.16;99184.30;104756;1288;108015;-70
2022/06/16 08:02:30;;;;;;;5.50;2.50;;;;;;;31.72;52.84;99180.89;104681;1288;99392;-71
2022/06/16 08:04:58;;;;;;;5.30;2.20;;;;;;;32.15;52.63;99179.66;104736;1288;96603;-70
2022/06/16 08:07:26;;;;;;;7.50;2.90;;;;;;;32.43;51.89;99177.09;104576;1289;112788;-69
2022/06/16 08:09:59;;;;;;;7.10;2.80;;;;;;;32.79;51.53;99174.70;104644;1288;97746;-70
2022/06/16 08:12:27;;;;;;;4.00;2.30;;;;;;;33.06;50.91;99172.56;104561;1288;108411;-69
2022/06/16 08:14:58;;;;;;;5.20;2.70;;;;;;;33.52;49.96;99163.80;104813;1288;97813;-69
2022/06/16 08:17:34;;;;;;;7.40;2.70;;;;;;;33.98;49.64;99161.23;104803;1290;97719;-69
2022/06/16 08:20:07;;;;;;;8.30;2.50;;;;;;;34.30;48.76;99159.64;104803;1288;112960;-70
2022/06/16 08:22:37;;;;;;;5.30;2.30;;;;;;;34.46;47.62;99164.11;104743;1288;99229;-69
2022/06/16 08:25:15;;;;;;;8.00;2.40;;;;;;;34.66;47.63;99162.17;104683;1290;108364;-69
2022/06/16 08:27:52;;;;;;;4.50;2.00;;;;;;;35.03;46.24;99163.73;104612;1290;100313;-68
2022/06/16 08:30:20;;;;;;;5.90;2.40;;;;;;;35.35;46.47;99161.75;104856;1288;97769;-70
2022/06/16 08:32:59;;;;;;;5.40;2.20;;;;;;;35.68;45.88;99160.38;104860;1288;112823;-70
2022/06/16 08:35:31;;;;;;;5.30;2.30;;;;;;;36.04;45.79;99161.51;104883;1290;99860;-71
2022/06/16 08:38:00;;;;;;;7.30;2.40;;;;;;;36.21;44.92;99155.55;104880;1288;106329;-73
2022/06/16 08:40:41;;;;;;;4.60;2.30;;;;;;;36.46;44.44;99157.17;104752;1288;99284;-73
2022/06/16 08:43:31;;;;;;;7.40;2.50;;;;;;;36.42;44.19;99155.95;104854;1288;99242;-71
2022/06/16 08:46:05;;;;;;;6.80;2.50;;;;;;;36.42;43.22;99151.80;104620;1288;112749;-71
2022/06/16 08:48:58;;;;;;;5.10;2.20;;;;;;;36.59;43.24;99149.38;104820;1288;99353;-71
2022/06/16 08:51:52;;;;;;;4.50;2.20;;;;;;;36.48;42.60;99148.52;104807;1287;106177;-70
2022/06/16 08:54:59;;;;;;;10.20;3.10;;;;;;;36.35;41.40;99145.16;104952;1288;99868;-69
2022/06/16 08:57:42;;;;;;;7.70;2.40;;;;;;;36.41;41.21;99144.33;106068;1289;97465;-71
2022/06/16 09:00:34;;;;;;;10.20;2.90;;;;;;;36.76;40.44;99141.83;104813;1288;112606;-70
2022/06/16 09:03:33;;;;;;;8.10;2.60;;;;;;;36.85;40.10;99142.90;104970;1288;99737;-72
2022/06/16 09:06:26;;;;;;;3.90;1.70;;;;;;;36.96;39.68;99143.30;104785;1290;107819;-70
2022/06/16 09:09:03;;;;;;;4.60;2.20;;;;;;;36.96;39.00;99141.75;104987;1288;98397;-70
2022/06/16 09:12:02;;;;;;;6.20;1.80;;;;;;;36.72;38.34;99146.06;104962;1288;96575;-69
2022/06/16 09:15:21;;;;;;;7.40;3.50;;;;;;;36.41;38.22;99146.60;105014;1288;111419;-69
2022/06/16 09:18:11;;;;;;;6.90;2.30;;;;;;;36.06;37.41;99143.45;105073;1288;99760;-69
2022/06/16 09:20:48;;;;;;;5.80;2.30;;;;;;;35.79;37.10;99147.05;104885;1288;107797;-70
2022/06/16 09:23:33;;;;;;;6.90;2.40;;;;;;;35.40;36.76;99149.55;104937;1290;99279;-69
2022/06/16 09:26:38;;;;;;;12.60;2.40;;;;;;;35.45;36.41;99145.75;105005;1288;99237;-70
2022/06/16 09:29:28;;;;;;;5.30;1.90;;;;;;;35.54;36.22;99143.45;105003;1288;112850;-71
2022/06/16 09:32:10;;;;;;;10.60;2.40;;;;;;;35.38;35.72;99142.75;105006;1288;99750;-70
2022/06/16 09:34:53;;;;;;;4.80;2.00;;;;;;;35.42;35.27;99145.45;105038;1288;107790;-70
2022/06/16 09:37:32;;;;;;;;;;;;;;;35.31;35.17;99140.69;104942;1289;99348;-70
2022/06/16 09:40:10;;;;;;;6.40;2.20;;;;;;;35.09;35.57;99138.54;105035;1288;99300;-70
2022/06/16 09:42:51;;;;;;;4.10;2.00;;;;;;;34.93;34.74;99137.75;104811;1288;112787;-69
2022/06/16 09:45:39;;;;;;;7.30;2.10;;;;;;;34.75;34.65;99136.80;105003;1288;97097;-70
2022/06/16 09:48:22;;;;;;;3.30;1.70;;;;;;;34.44;34.07;99134.77;104749;1288;107807;-72
2022/06/16 09:51:08;;;;;;;5.20;2.30;;;;;;;34.12;34.33;99133.41;105036;1288;99274;-71
2022/06/16 09:53:39;;;;;;;5.20;2.10;;;;;;;33.91;33.67;99129.18;104818;1288;96681;-71
2022/06/16 09:56:42;;;;;;;4.70;2.30;;;;;;;33.80;33.55;99121.52;104890;1288;112709;-70
2022/06/16 09:59:25;;;;;;;4.90;1.70;;;;;;;33.58;33.09;99123.55;104653;1288;99663;-71
2022/06/16 10:02:01;;;;;;;2.60;1.80;;;;;;;33.19;32.97;99127.30;104675;1290;107678;-72
2022/06/16 10:04:34;;;;;;;6.90;2.50;;;;;;;32.84;33.01;99133.45;104927;1290;99278;-69
2022/06/16 10:07:34;;;;;;;4.20;1.90;;;;;;;32.44;32.32;99130.02;104902;1288;99344;-70
2022/06/16 10:10:43;;;;;;;5.50;2.30;;;;;;;31.82;32.29;99123.80;104905;1288;113123;-69
2022/06/16 10:13:33;;;;;;;2.70;1.90;;;;;;;31.42;32.25;99123.05;104532;1290;98481;-71
2022/06/16 10:16:08;;;;;;;7.10;2.20;;;;;;;31.00;32.13;99120.73;104975;1288;107783;-70
2022/06/16 10:18:35;;;;;;;9.60;2.30;;;;;;;30.56;32.06;99119.13;104992;1288;99264;-70
2022/06/16 10:21:10;;;;;;;7.60;2.70;;;;;;;30.30;32.08;99124.48;104898;1288;99228;-70
2022/06/16 10:24:05;;;;;;;8.30;2.40;;;;;;;29.99;31.74;99127.95;104803;1288;112722;-69
2022/06/16 10:26:34;;;;;;;4.70;2.00;;;;;;;29.65;31.71;99124.58;104834;1288;99841;-69
2022/06/16 10:29:29;;;;;;;6.00;2.00;;;;;;;29.41;31.75;99126.54;104820;1288;107947;-70
2022/06/16 10:32:03;;;;;;;9.00;2.50;;;;;;;29.17;31.52;99130.34;104838;1288;96785;-70
2022/06/16 10:34:40;;;;;;;6.70;2.50;;;;;;;29.03;31.69;99127.23;104835;1288;99149;-71
2022/06/16 10:37:31;;;;;;;7.70;2.40;;;;;;;28.91;31.40;99134.29;104692;1288;112772;-70
2022/06/16 10:40:14;;;;;;;6.00;2.10;;;;;;;28.66;31.32;99136.27;104978;1288;99079;-70
2022/06/16 10:42:54;;;;;;;2.70;2.00;;;;;;;28.50;31.26;99136.73;104973;1288;107823;-70
2022/06/16 10:45:34;;;;;;;2.70;1.80;;;;;;;28.38;31.28;99136.67;104996;1288;99258;-70
2022/06/16 10:48:23;;;;;;;7.70;2.30;;;;;;;28.26;31.21;99131.82;105021;1288;99354;-70
2022/06/16 10:51:00;;;;;;;5.80;2.40;;;;;;;28.13;31.45;99133.49;104762;1288;112977;-69
2022/06/16 10:53:39;;;;;;;6.00;2.30;;;;;;;28.05;31.45;99130.48;104982;1288;99255;-70
2022/06/16 10:56:18;;;;;;;4.90;2.10;;;;;;;28.04;31.51;99130.99;104797;1290;107810;-69
2022/06/16 10:59:04;;;;;;;6.90;2.40;;;;;;;28.05;31.48;99126.87;105015;1288;97946;-71
2022/06/16 11:01:56;;;;;;;6.20;2.40;;;;;;;28.02;31.61;99126.39;105019;1288;99351;-72
2022/06/16 11:04:34;;;;;;;3.10;2.20;;;;;;;27.99;31.63;99124.31;104987;1288;112773;-71
2022/06/16 11:07:10;;;;;;;5.30;2.20;;;;;;;27.92;31.58;99118.66;104999;1288;99897;-71
2022/06/16 11:09:45;;;;;;;7.90;2.40;;;;;;;27.86;31.65;99122.50;104971;1288;107782;-70
2022/06/16 11:12:25;;;;;;;7.10;2.70;;;;;;;27.80;31.45;99121.16;104947;1288;99181;-70
2022/06/16 11:15:19;;;;;;;4.70;2.50;;;;;;;27.70;31.42;99120.66;104989;1288;99271;-71
2022/06/16 11:17:56;;;;;;;5.80;2.00;;;;;;;27.59;31.65;99117.58;104973;1288;112712;-71
2022/06/16 11:20:34;;;;;;;7.50;2.80;;;;;;;27.50;31.62;99119.96;104957;1288;99100;-70
2022/06/16 11:23:22;;;;;;;4.40;2.10;;;;;;;27.39;31.55;99117.54;104914;1290;107035;-70
2022/06/16 11:26:09;;;;;;;8.80;2.40;;;;;;;27.26;31.67;99112.34;104953;1288;99267;-70
2022/06/16 11:28:57;;;;;;;6.40;2.40;;;;;;;27.19;31.59;99112.41;104994;1288;99357;-70
2022/06/16 11:31:44;;;;;;;;;;;;;;;27.07;31.74;99113.00;104966;1287;112654;-70
2022/06/16 11:34:22;;;;;;;4.10;2.20;;;;;;;26.94;31.81;99112.64;104926;1288;97657;-70
2022/06/16 11:37:07;;;;;;;8.50;2.70;;;;;;;26.85;31.95;99112.56;104711;1290;107869;-70
2022/06/16 11:39:35;;;;;;;6.30;2.50;;;;;;;26.83;32.20;99107.62;104915;1289;99252;-71
2022/06/16 11:42:25;;;;;;;9.30;2.80;;;;;;;26.86;32.03;99104.58;104981;1288;99285;-70
2022/06/16 11:45:03;;;;;;;6.10;2.50;;;;;;;26.81;31.84;99100.98;104923;1288;112946;-70
2022/06/16 11:47:53;;;;;;;5.60;2.50;;;;;;;26.68;32.12;99097.34;104942;1290;99323;-70
2022/06/16 11:51:05;;;;;;;6.90;2.50;;;;;;;26.67;32.23;99094.57;104980;1288;107905;-70
2022/06/16 11:54:07;;;;;;;5.10;2.30;;;;;;;26.58;32.12;99091.70;104902;1289;100072;-70
2022/06/16 11:56:50;;;;;;;4.10;2.10;;;;;;;26.53;32.33;99089.33;104938;1290;99229;-70
2022/06/16 11:59:39;;;;;;;5.10;2.30;;;;;;;26.52;32.26;99090.46;104858;1288;113371;-68
2022/06/16 12:02:17;;;;;;;5.20;2.40;;;;;;;26.52;32.28;99084.24;104945;1288;99248;-66
2022/06/16 12:05:05;;;;;;;5.00;2.10;;;;;;;26.53;32.31;99086.14;104931;1290;107802;-69
2022/06/16 12:07:56;;;;;;;5.60;2.30;;;;;;;26.55;32.46;99084.16;104924;1290;97825;-70
2022/06/16 12:10:43;;;;;;;6.50;2.50;;;;;;;26.56;32.55;99084.95;104990;1290;96586;-69
2022/06/16 12:13:39;;;;;;;6.80;2.60;;;;;;;26.61;32.61;99082.96;104760;1290;112898;-69
2022/06/16 12:16:29;;;;;;;7.40;2.70;;;;;;;26.63;32.46;99079.09;104964;1288;99278;-68
2022/06/16 12:19:25;;;;;;;6.60;2.60;;;;;;;26.60;32.47;99081.78;104678;1290;108468;-69
2022/06/16 12:22:03;;;;;;;5.90;2.30;;;;;;;26.60;32.60;99079.55;104940;1289;96666;-69
2022/06/16 12:24:47;;;;;;;5.20;2.20;;;;;;;26.67;32.63;99076.85;104757;1290;99338;-69